Time,TemperatureF,DewpointF,PressureIn,WindDirection,WindDirectionDegrees,WindSpeedMPH,WindSpeedGustMPH,Humidity,HourlyPrecipIn,Conditions,Clouds,dailyrainin,SolarRadiationWatts/m^2,SoftwareType,DateUTC
2013-02-16 00:13:00,76.0,70.0,30.02,SE,128,4.0,6.0,82,0.00,,,0.00,0,weatherlink.com 1.10,2013-02-16 04:13:00,
2013-02-16 00:28:00,75.7,70.0,30.02,East,82,3.0,7.0,82,0.00,,,0.00,0,weatherlink.com 1.10,2013-02-16 04:28:00,
2013-02-16 00:43:00,75.6,70.0,30.01,East,96,1.0,7.0,83,0.00,,,0.00,0,weatherlink.com 1.10,2013-02-16 04:43:00,
2013-02-16 00:58:00,75.4,70.0,30.02,East,98,1.0,6.0,83,0.00,,,0.00,0,weatherlink.com 1.10,2013-02-16 04:58:00,
2013-02-16 01:13:00,75.3,70.0,30.01,East,97,2.0,7.0,83,0.00,,,0.00,0,weatherlink.com 1.10,2013-02-16 05:13:00,
2013-02-16 01:28:00,75.2,70.0,30.01,East,97,3.0,3.0,84,0.00,,,0.00,0,weatherlink.com 1.10,2013-02-16 05:28:00,
2013-02-16 01:43:00,75.2,70.0,30.00,East,97,5.0,8.0,84,0.00,,,0.00,0,weatherlink.com 1.10,2013-02-16 05:43:00,
2013-02-16 01:58:00,75.4,70.0,30.00,East,82,1.0,9.0,83,0.00,,,0.00,0,weatherlink.com 1.10,2013-02-16 05:58:00,
2013-02-16 02:14:00,75.5,70.0,29.99,ESE,103,4.0,6.0,84,0.00,,,0.00,0,weatherlink.com 1.10,2013-02-16 06:14:00,
2013-02-16 02:29:00,75.5,70.0,29.99,ENE,59,4.0,7.0,84,0.00,,,0.00,0,weatherlink.com 1.10,2013-02-16 06:29:00,
2013-02-16 02:44:00,75.3,70.0,29.99,ESE,119,5.0,9.0,84,0.00,,,0.00,0,weatherlink.com 1.10,2013-02-16 06:44:00,
2013-02-16 02:59:00,75.1,70.0,29.98,ESE,105,3.0,7.0,83,0.00,,,0.00,0,weatherlink.com 1.10,2013-02-16 06:59:00,
2013-02-16 03:14:00,74.8,70.0,29.98,SE,135,6.0,8.0,84,0.00,,,0.00,0,weatherlink.com 1.10,2013-02-16 07:14:00,
2013-02-16 03:29:00,74.8,70.0,29.97,SE,124,4.0,8.0,84,0.00,,,0.00,0,weatherlink.com 1.10,2013-02-16 07:29:00,
2013-02-16 03:44:00,74.7,70.0,29.96,East,91,2.0,10.0,84,0.00,,,0.00,0,weatherlink.com 1.10,2013-02-16 07:44:00,
2013-02-16 03:59:00,74.6,70.0,29.96,ESE,118,3.0,9.0,84,0.00,,,0.00,0,weatherlink.com 1.10,2013-02-16 07:59:00,
2013-02-16 04:14:00,74.4,69.0,29.96,SE,138,7.0,10.0,84,0.00,,,0.00,0,weatherlink.com 1.10,2013-02-16 08:14:00,
2013-02-16 04:29:00,74.2,69.0,29.96,SE,138,3.0,6.0,84,0.00,,,0.00,0,weatherlink.com 1.10,2013-02-16 08:29:00,
2013-02-16 04:44:00,73.9,69.0,29.96,SE,128,2.0,7.0,84,0.00,,,0.00,0,weatherlink.com 1.10,2013-02-16 08:44:00,
2013-02-16 04:59:00,73.6,69.0,29.96,SE,138,1.0,5.0,84,0.00,,,0.00,0,weatherlink.com 1.10,2013-02-16 08:59:00,
2013-02-16 05:14:00,73.3,68.0,29.96,SE,138,1.0,5.0,84,0.00,,,0.00,0,weatherlink.com 1.10,2013-02-16 09:14:00,
2013-02-16 05:29:00,73.2,69.0,29.96,SE,138,2.0,5.0,85,0.00,,,0.00,0,weatherlink.com 1.10,2013-02-16 09:29:00,
2013-02-16 05:44:00,72.9,68.0,29.97,SE,138,0.0,3.0,85,0.00,,,0.00,0,weatherlink.com 1.10,2013-02-16 09:44:00,
2013-02-16 05:59:00,72.9,69.0,29.97,SE,138,1.0,5.0,86,0.00,,,0.00,0,weatherlink.com 1.10,2013-02-16 09:59:00,
2013-02-16 06:14:00,72.8,68.0,29.98,SE,139,0.0,4.0,86,0.00,,,0.00,0,weatherlink.com 1.10,2013-02-16 10:14:00,
2013-02-16 06:29:00,72.5,68.0,29.98,SE,139,0.0,3.0,86,0.00,,,0.00,0,weatherlink.com 1.10,2013-02-16 10:29:00,
2013-02-16 06:44:00,72.4,68.0,29.98,SE,139,0.0,2.0,87,0.00,,,0.00,0,weatherlink.com 1.10,2013-02-16 10:44:00,
2013-02-16 06:59:00,72.4,68.0,29.99,SE,132,0.0,6.0,86,0.00,,,0.00,9,weatherlink.com 1.10,2013-02-16 10:59:00,
2013-02-16 07:14:00,73.0,68.0,29.99,East,94,5.0,7.0,85,0.00,,,0.00,39,weatherlink.com 1.10,2013-02-16 11:14:00,
2013-02-16 07:29:00,73.8,69.0,30.00,SE,141,1.0,5.0,84,0.00,,,0.00,86,weatherlink.com 1.10,2013-02-16 11:29:00,
2013-02-16 07:44:00,74.1,69.0,30.00,ESE,121,3.0,5.0,83,0.00,,,0.00,144,weatherlink.com 1.10,2013-02-16 11:44:00,
2013-02-16 08:00:00,75.6,69.0,30.00,East,79,1.0,9.0,81,0.00,,,0.00,195,weatherlink.com 1.10,2013-02-16 12:00:00,
2013-02-16 08:14:00,76.7,70.0,30.00,East,79,5.0,14.0,79,0.00,,,0.00,255,weatherlink.com 1.10,2013-02-16 12:14:00,
2013-02-16 08:29:00,77.4,70.0,30.00,ESE,114,4.0,11.0,78,0.00,,,0.00,316,weatherlink.com 1.10,2013-02-16 12:29:00,
2013-02-16 08:45:00,77.9,71.0,30.00,ENE,75,5.0,13.0,78,0.00,,,0.00,371,weatherlink.com 1.10,2013-02-16 12:45:00,
2013-02-16 09:00:00,78.8,70.0,30.01,SE,124,11.0,14.0,75,0.00,,,0.00,431,weatherlink.com 1.10,2013-02-16 13:00:00,
2013-02-16 09:15:00,79.8,70.0,30.01,East,98,10.0,14.0,72,0.00,,,0.00,480,weatherlink.com 1.10,2013-02-16 13:15:00,
2013-02-16 09:30:00,80.3,70.0,30.01,ESE,115,8.0,16.0,71,0.00,,,0.00,534,weatherlink.com 1.10,2013-02-16 13:30:00,
2013-02-16 09:45:00,81.1,70.0,30.01,ENE,62,7.0,14.0,70,0.00,,,0.00,622,weatherlink.com 1.10,2013-02-16 13:45:00,
2013-02-16 10:00:00,82.3,70.0,30.01,ESE,105,10.0,18.0,67,0.00,,,0.00,640,weatherlink.com 1.10,2013-02-16 14:00:00,
2013-02-16 10:15:00,83.5,69.0,30.01,SSE,158,8.0,17.0,62,0.00,,,0.00,675,weatherlink.com 1.10,2013-02-16 14:15:00,
2013-02-16 10:30:00,84.4,68.0,30.01,East,85,7.0,12.0,59,0.00,,,0.00,715,weatherlink.com 1.10,2013-02-16 14:30:00,
2013-02-16 10:45:00,85.4,66.0,30.00,ENE,71,13.0,15.0,53,0.00,,,0.00,689,weatherlink.com 1.10,2013-02-16 14:45:00,
2013-02-16 11:00:00,86.5,67.0,30.00,East,83,5.0,10.0,52,0.00,,,0.00,60,weatherlink.com 1.10,2013-02-16 15:00:00,
2013-02-16 11:15:00,87.2,66.0,30.00,ENE,76,5.0,15.0,50,0.00,,,0.00,67,weatherlink.com 1.10,2013-02-16 15:15:00,
2013-02-16 11:30:00,85.8,69.0,29.99,ENE,78,4.0,13.0,57,0.00,,,0.00,167,weatherlink.com 1.10,2013-02-16 15:30:00,
2013-02-16 11:46:00,86.3,69.0,29.99,East,88,9.0,18.0,56,0.00,,,0.00,884,weatherlink.com 1.10,2013-02-16 15:46:00,
2013-02-16 12:01:00,86.1,71.0,29.99,East,88,7.0,15.0,61,0.00,,,0.00,754,weatherlink.com 1.10,2013-02-16 16:01:00,
2013-02-16 12:15:00,84.2,72.0,29.98,ENE,58,8.0,14.0,66,0.00,,,0.00,258,weatherlink.com 1.10,2013-02-16 16:15:00,
2013-02-16 12:31:00,86.7,72.0,29.98,NE,46,3.0,11.0,61,0.00,,,0.00,954,weatherlink.com 1.10,2013-02-16 16:31:00,
2013-02-16 12:45:00,88.3,66.0,29.97,SE,129,4.0,9.0,48,0.00,,,0.00,907,weatherlink.com 1.10,2013-02-16 16:45:00,
2013-02-16 13:00:00,88.7,65.0,29.96,South,184,7.0,17.0,45,0.00,,,0.00,893,weatherlink.com 1.10,2013-02-16 17:00:00,
2013-02-16 13:16:00,88.9,64.0,29.96,SE,138,11.0,17.0,43,0.00,,,0.00,865,weatherlink.com 1.10,2013-02-16 17:16:00,
2013-02-16 13:30:00,89.1,64.0,29.95,ESE,123,2.0,18.0,44,0.00,,,0.00,882,weatherlink.com 1.10,2013-02-16 17:30:00,
2013-02-16 13:45:00,89.1,66.0,29.95,ESE,121,11.0,16.0,46,0.00,,,0.00,896,weatherlink.com 1.10,2013-02-16 17:45:00,
2013-02-16 14:01:00,88.1,68.0,29.94,SE,132,9.0,19.0,51,0.00,,,0.00,830,weatherlink.com 1.10,2013-02-16 18:01:00,
2013-02-16 14:16:00,88.5,65.0,29.94,SE,129,10.0,15.0,45,0.00,,,0.00,190,weatherlink.com 1.10,2013-02-16 18:16:00,
2013-02-16 14:30:00,87.8,66.0,29.93,ESE,120,9.0,16.0,48,0.00,,,0.00,780,weatherlink.com 1.10,2013-02-16 18:30:00,
2013-02-16 14:46:00,87.6,64.0,29.93,SSE,153,6.0,21.0,46,0.00,,,0.00,715,weatherlink.com 1.10,2013-02-16 18:46:00,
2013-02-16 15:01:00,87.5,65.0,29.92,ESE,115,4.0,16.0,48,0.00,,,0.00,686,weatherlink.com 1.10,2013-02-16 19:01:00,
2013-02-16 15:16:00,87.9,65.0,29.93,SSE,164,13.0,16.0,46,0.00,,,0.00,633,weatherlink.com 1.10,2013-02-16 19:16:00,
2013-02-16 15:31:00,86.7,65.0,29.93,SE,133,7.0,17.0,48,0.00,,,0.00,585,weatherlink.com 1.10,2013-02-16 19:31:00,
2013-02-16 15:46:00,86.9,65.0,29.92,SE,125,8.0,17.0,48,0.00,,,0.00,457,weatherlink.com 1.10,2013-02-16 19:46:00,
2013-02-16 16:01:00,86.5,64.0,29.92,SE,129,11.0,14.0,47,0.00,,,0.00,497,weatherlink.com 1.10,2013-02-16 20:01:00,
2013-02-16 16:16:00,85.8,65.0,29.93,ESE,105,7.0,15.0,50,0.00,,,0.00,427,weatherlink.com 1.10,2013-02-16 20:16:00,
2013-02-16 16:31:00,85.6,64.0,29.92,SE,126,7.0,17.0,49,0.00,,,0.00,364,weatherlink.com 1.10,2013-02-16 20:31:00,
2013-02-16 16:46:00,85.1,65.0,29.93,ESE,106,5.0,15.0,51,0.00,,,0.00,206,weatherlink.com 1.10,2013-02-16 20:46:00,
2013-02-16 17:01:00,85.0,65.0,29.93,ENE,78,2.0,12.0,51,0.00,,,0.00,69,weatherlink.com 1.10,2013-02-16 21:01:00,
2013-02-16 17:16:00,84.4,65.0,29.93,SE,132,4.0,11.0,52,0.00,,,0.00,53,weatherlink.com 1.10,2013-02-16 21:16:00,
2013-02-16 17:31:00,83.6,65.0,29.94,SE,125,10.0,13.0,53,0.00,,,0.00,86,weatherlink.com 1.10,2013-02-16 21:31:00,
2013-02-16 17:46:00,83.1,64.0,29.94,SE,134,3.0,11.0,53,0.00,,,0.00,40,weatherlink.com 1.10,2013-02-16 21:46:00,
2013-02-16 18:01:00,82.8,64.0,29.95,SSE,154,5.0,13.0,53,0.00,,,0.00,25,weatherlink.com 1.10,2013-02-16 22:01:00,
2013-02-16 18:16:00,82.3,65.0,29.95,SE,137,2.0,9.0,56,0.00,,,0.00,12,weatherlink.com 1.10,2013-02-16 22:16:00,
2013-02-16 18:31:00,81.7,64.0,29.95,SSE,153,8.0,11.0,56,0.00,,,0.00,0,weatherlink.com 1.10,2013-02-16 22:31:00,
2013-02-16 18:46:00,81.1,65.0,29.95,ESE,115,4.0,11.0,58,0.00,,,0.00,0,weatherlink.com 1.10,2013-02-16 22:46:00,
2013-02-16 19:01:00,80.7,65.0,29.95,ESE,108,3.0,10.0,60,0.00,,,0.00,0,weatherlink.com 1.10,2013-02-16 23:01:00,
2013-02-16 19:16:00,80.3,66.0,29.96,SE,136,2.0,10.0,62,0.00,,,0.00,0,weatherlink.com 1.10,2013-02-16 23:16:00,
2013-02-16 19:31:00,79.9,67.0,29.96,ESE,122,2.0,10.0,65,0.00,,,0.00,0,weatherlink.com 1.10,2013-02-16 23:31:00,
2013-02-16 19:46:00,79.5,68.0,29.97,ESE,121,8.0,9.0,68,0.00,,,0.00,0,weatherlink.com 1.10,2013-02-16 23:46:00,
2013-02-16 20:01:00,79.0,68.0,29.98,East,93,3.0,9.0,69,0.00,,,0.00,0,weatherlink.com 1.10,2013-02-17 00:01:00,
2013-02-16 20:16:00,78.6,68.0,29.98,ESE,105,2.0,11.0,71,0.00,,,0.00,0,weatherlink.com 1.10,2013-02-17 00:16:00,
2013-02-16 20:31:00,78.4,70.0,29.99,ENE,77,8.0,10.0,74,0.00,,,0.00,0,weatherlink.com 1.10,2013-02-17 00:31:00,
2013-02-16 20:46:00,78.0,70.0,29.99,East,81,7.0,11.0,75,0.00,,,0.00,0,weatherlink.com 1.10,2013-02-17 00:46:00,
2013-02-16 21:01:00,77.7,69.0,30.00,East,92,6.0,11.0,74,0.00,,,0.00,0,weatherlink.com 1.10,2013-02-17 01:01:00,
2013-02-16 21:16:00,77.5,69.0,30.00,East,89,6.0,10.0,76,0.00,,,0.00,0,weatherlink.com 1.10,2013-02-17 01:16:00,
2013-02-16 21:46:00,77.3,69.0,30.01,ESE,110,5.0,9.0,76,0.00,,,0.00,0,weatherlink.com 1.10,2013-02-17 01:46:00,
2013-02-16 22:01:00,77.3,69.0,30.00,ESE,103,3.0,8.0,76,0.00,,,0.00,0,weatherlink.com 1.10,2013-02-17 02:01:00,
2013-02-16 22:16:00,77.5,70.0,30.01,East,96,6.0,8.0,77,0.00,,,0.00,0,weatherlink.com 1.10,2013-02-17 02:16:00,
2013-02-16 22:31:00,77.4,70.0,30.00,East,86,7.0,10.0,77,0.00,,,0.00,0,weatherlink.com 1.10,2013-02-17 02:31:00,
2013-02-16 22:46:00,77.5,69.0,30.00,ESE,104,2.0,8.0,76,0.00,,,0.00,0,weatherlink.com 1.10,2013-02-17 02:46:00,
2013-02-16 23:01:00,77.5,69.0,30.00,East,98,2.0,7.0,76,0.00,,,0.00,0,weatherlink.com 1.10,2013-02-17 03:01:00,
2013-02-16 23:16:00,77.5,70.0,30.00,ESE,118,2.0,8.0,77,0.00,,,0.00,0,weatherlink.com 1.10,2013-02-17 03:16:00,
2013-02-16 23:31:00,77.5,70.0,30.01,East,82,0.0,7.0,78,0.00,,,0.00,0,weatherlink.com 1.10,2013-02-17 03:31:00,
2013-02-16 23:46:00,77.4,70.0,30.00,ESE,116,4.0,7.0,78,0.00,,,0.00,0,weatherlink.com 1.10,2013-02-17 03:46:00,